createdAt,value
2018-09-03T00:00:01.438Z,17.2
2018-09-03T00:05:01.313Z,17.3
2018-09-03T00:10:01.346Z,17.3
2018-09-03T00:15:01.377Z,17.3
2018-09-03T00:20:01.420Z,17.0
2018-09-03T00:25:01.317Z,16.4
2018-09-03T00:30:06.392Z,16.1
2018-09-03T00:35:01.317Z,15.2
2018-09-03T00:40:06.390Z,14.4
2018-09-03T00:45:06.330Z,14.1
2018-09-03T00:50:01.366Z,14.2
2018-09-03T00:55:06.301Z,13.8
2018-09-03T01:00:06.427Z,13.9
2018-09-03T01:05:06.328Z,13.3
2018-09-03T01:10:01.413Z,12.9
2018-09-03T01:15:06.365Z,12.5
2018-09-03T01:20:01.401Z,12.0
2018-09-03T01:25:06.380Z,11.4
2018-09-03T01:30:01.486Z,11.8
2018-09-03T01:35:01.405Z,12.4
2018-09-03T01:40:06.383Z,12.3
2018-09-03T01:45:06.395Z,12.9
2018-09-03T01:50:06.391Z,12.9
2018-09-03T01:55:01.415Z,12.8
2018-09-03T02:00:06.397Z,12.3
2018-09-03T02:05:01.412Z,12.7
2018-09-03T02:10:01.384Z,12.9
2018-09-03T02:15:01.394Z,13.1
2018-09-03T02:20:01.350Z,13.2
2018-09-03T02:25:01.365Z,13.1
2018-09-03T02:30:01.400Z,12.8
2018-09-03T02:35:01.385Z,12.7
2018-09-03T02:40:01.381Z,13.0
2018-09-03T02:45:01.380Z,12.8
2018-09-03T02:50:01.414Z,12.7
2018-09-03T02:55:01.369Z,12.3
2018-09-03T03:00:01.426Z,11.6
2018-09-03T03:05:01.380Z,11.0
2018-09-03T03:10:01.400Z,10.7
2018-09-03T03:15:01.435Z,10.8
2018-09-03T03:20:01.408Z,11.1
2018-09-03T03:30:01.402Z,11.4
2018-09-03T03:35:01.377Z,11.1
2018-09-03T03:40:01.351Z,10.8
2018-09-03T03:45:01.424Z,10.2
2018-09-03T03:50:01.386Z,9.2
2018-09-03T03:55:01.765Z,9.1
2018-09-03T04:00:01.454Z,9.3
2018-09-03T04:05:01.390Z,8.9
2018-09-03T04:10:01.391Z,9.1
2018-09-03T04:15:01.386Z,9.9
2018-09-03T04:20:01.456Z,9.7
2018-09-03T04:25:01.358Z,9.4
2018-09-03T04:30:01.393Z,9.7
2018-09-03T04:35:01.389Z,9.3
2018-09-03T04:40:01.382Z,9.2
2018-09-03T04:45:01.380Z,9.0
2018-09-03T04:50:01.383Z,9.0
2018-09-03T05:00:01.390Z,9.3
2018-09-03T05:05:01.358Z,9.1
2018-09-03T05:10:01.391Z,9.2
2018-09-03T05:16:01.376Z,9.4
2018-09-03T05:21:01.412Z,9.7
2018-09-03T05:26:01.352Z,9.9
2018-09-03T05:31:01.667Z,10.2
2018-09-03T05:36:01.388Z,10.0
2018-09-03T05:41:01.393Z,10.1
2018-09-03T05:46:01.384Z,10.0
2018-09-03T05:51:01.353Z,9.6
2018-09-03T05:56:01.387Z,9.4
2018-09-03T06:01:01.390Z,9.6
2018-09-03T06:06:01.370Z,9.3
2018-09-03T06:11:01.594Z,9.0
2018-09-03T06:16:01.371Z,8.7
2018-09-03T06:21:01.384Z,8.9
2018-09-03T06:26:01.385Z,8.6
2018-09-03T06:31:01.405Z,8.5
2018-09-03T06:36:01.717Z,8.6
2018-09-03T06:41:01.391Z,8.5
2018-09-03T06:46:01.387Z,8.1
2018-09-03T06:51:01.389Z,8.2
2018-09-03T07:01:06.392Z,8.4
2018-09-03T07:06:06.454Z,8.8
2018-09-03T07:11:01.401Z,9.0
2018-09-03T07:16:01.428Z,8.9
2018-09-03T07:21:01.397Z,8.8
2018-09-03T07:27:01.392Z,8.6
2018-09-03T07:32:01.413Z,7.8
2018-09-03T07:37:01.392Z,7.7
2018-09-03T07:42:01.387Z,7.4
2018-09-03T07:47:01.355Z,7.1
2018-09-03T07:52:01.386Z,7.0
2018-09-03T07:57:01.423Z,7.0
2018-09-03T08:02:01.355Z,6.9
2018-09-03T08:07:01.393Z,6.7
2018-09-03T08:17:01.394Z,6.3
2018-09-03T08:27:01.392Z,6.0
2018-09-03T08:32:01.393Z,6.1
2018-09-03T08:37:01.378Z,6.0
2018-09-03T08:42:01.412Z,6.0
2018-09-03T08:47:01.382Z,6.2
2018-09-03T08:52:01.374Z,5.8
2018-09-03T08:57:01.524Z,5.9
2018-09-03T09:07:01.385Z,5.9
2018-09-03T09:12:01.385Z,6.0
2018-09-03T09:17:01.382Z,6.0
2018-09-03T09:22:01.386Z,5.9
2018-09-03T09:32:01.360Z,5.7
2018-09-03T09:37:01.541Z,5.7
2018-09-03T09:42:01.365Z,6.0
2018-09-03T09:47:01.390Z,6.2
2018-09-03T09:57:01.387Z,6.4
2018-09-03T10:07:01.378Z,6.8
2018-09-03T10:12:01.384Z,6.8
2018-09-03T10:17:01.407Z,7.2
2018-09-03T10:22:01.354Z,7.0
2018-09-03T10:32:01.763Z,6.8
2018-09-03T10:37:06.397Z,7.0
2018-09-03T10:42:01.398Z,7.0
2018-09-03T10:47:01.669Z,7.0
2018-09-03T10:52:01.376Z,7.0
2018-09-03T10:57:01.402Z,6.8
2018-09-03T11:02:01.400Z,6.4
2018-09-03T11:07:01.476Z,6.4
2018-09-03T11:12:01.382Z,6.6
2018-09-03T11:17:06.384Z,6.6
2018-09-03T11:22:06.390Z,6.7
2018-09-03T11:27:06.393Z,6.7
2018-09-03T11:32:01.406Z,6.6
2018-09-03T11:37:01.422Z,6.3
2018-09-03T11:42:06.445Z,6.0
2018-09-03T11:52:01.387Z,6.3
2018-09-03T11:57:06.400Z,6.7
2018-09-03T12:02:01.653Z,6.8
2018-09-03T12:07:01.378Z,7.0
2018-09-03T12:12:01.387Z,6.6
2018-09-03T12:17:01.382Z,6.5
2018-09-03T12:22:01.352Z,6.3
2018-09-03T12:27:01.420Z,6.3
2018-09-03T12:37:01.737Z,6.7
2018-09-03T12:42:01.373Z,6.7
2018-09-03T12:47:01.383Z,6.9
2018-09-03T12:52:01.404Z,6.8
2018-09-03T12:57:01.394Z,6.6
2018-09-03T13:02:01.410Z,6.4
2018-09-03T13:07:06.422Z,6.4
2018-09-03T13:12:01.399Z,6.2
2018-09-03T13:22:01.401Z,6.2
2018-09-03T13:27:01.398Z,6.4
2018-09-03T13:32:01.375Z,6.5
2018-09-03T13:37:01.382Z,6.5
2018-09-03T13:42:01.565Z,6.6
2018-09-03T13:47:01.473Z,6.6
2018-09-03T13:52:01.387Z,6.6
2018-09-03T13:57:01.386Z,6.6
2018-09-03T14:02:01.386Z,6.4
2018-09-03T14:07:01.401Z,6.4
2018-09-03T14:12:06.524Z,6.6
2018-09-03T14:17:06.369Z,6.6
2018-09-03T14:22:01.392Z,6.6
2018-09-03T14:32:01.643Z,6.8
2018-09-03T14:37:01.654Z,6.6
2018-09-03T14:42:01.377Z,6.4
2018-09-03T14:47:01.399Z,6.8
2018-09-03T14:52:01.358Z,6.8
2018-09-03T15:02:06.390Z,6.6
2018-09-03T15:07:06.423Z,7.5
2018-09-03T15:12:01.430Z,7.6
2018-09-03T15:17:06.361Z,7.4
2018-09-03T15:22:01.424Z,7.4
2018-09-03T15:27:01.412Z,7.3
2018-09-03T15:32:01.386Z,6.5
2018-09-03T15:37:01.416Z,6.0
2018-09-03T15:42:06.391Z,6.0
2018-09-03T15:47:01.434Z,6.0
2018-09-03T15:52:01.418Z,6.2
2018-09-03T15:57:01.421Z,6.0
2018-09-03T16:02:01.403Z,8.0
2018-09-03T16:07:01.385Z,8.0
2018-09-03T16:12:01.386Z,8.2
2018-09-03T16:17:01.373Z,8.2
2018-09-03T16:22:01.379Z,8.5
2018-09-03T16:27:01.382Z,6.6
2018-09-03T16:32:01.348Z,6.8
2018-09-03T16:37:01.377Z,6.8
2018-09-03T16:42:01.714Z,6.9
2018-09-03T16:47:01.389Z,7.1
2018-09-03T16:52:01.391Z,7.4
2018-09-03T16:57:01.386Z,7.8
2018-09-03T17:02:01.393Z,7.8
2018-09-03T17:07:01.389Z,7.8
2018-09-03T17:12:01.366Z,7.9
2018-09-03T17:17:01.376Z,8.0
2018-09-03T17:22:01.395Z,7.6
2018-09-03T17:27:01.447Z,7.3
2018-09-03T17:32:01.356Z,7.4
2018-09-03T17:37:01.381Z,7.2
2018-09-03T17:42:01.388Z,7.0
2018-09-03T17:47:01.388Z,7.2
2018-09-03T17:52:01.388Z,7.6
2018-09-03T17:57:01.382Z,7.6
2018-09-03T18:02:01.461Z,7.6
2018-09-03T18:07:01.391Z,7.4
2018-09-03T18:12:01.388Z,7.4
2018-09-03T18:17:01.388Z,7.3
2018-09-03T18:22:01.388Z,7.2
2018-09-03T18:32:01.395Z,7.6
2018-09-03T18:37:01.660Z,7.5
2018-09-03T18:42:01.767Z,8.1
2018-09-03T18:52:01.419Z,8.3
2018-09-03T18:57:01.381Z,8.6
2018-09-03T19:02:01.397Z,8.6
2018-09-03T19:07:01.389Z,8.0
2018-09-03T19:12:01.390Z,8.0
2018-09-03T19:17:01.352Z,7.7
2018-09-03T19:22:01.357Z,7.4
2018-09-03T19:27:01.414Z,7.3
2018-09-03T19:32:01.418Z,6.7
2018-09-03T19:42:06.395Z,6.5
2018-09-03T19:47:06.392Z,6.5
2018-09-03T19:52:01.765Z,7.0
2018-09-03T19:57:01.443Z,7.4
2018-09-03T20:02:06.381Z,7.4
2018-09-03T20:12:01.384Z,7.8
2018-09-03T20:17:01.485Z,7.2
2018-09-03T20:22:01.366Z,7.0
2018-09-03T20:27:01.365Z,7.0
2018-09-03T20:37:01.344Z,6.9
2018-09-03T20:42:01.374Z,7.2
2018-09-03T20:52:01.381Z,7.9
2018-09-03T20:57:01.385Z,8.1
2018-09-03T21:02:01.385Z,7.7
2018-09-03T21:12:01.390Z,7.4
2018-09-03T21:17:01.384Z,7.4
2018-09-03T21:22:01.793Z,7.5
2018-09-03T21:27:01.390Z,7.3
2018-09-03T21:32:01.375Z,7.6
2018-09-03T21:37:01.444Z,7.6
2018-09-03T21:42:01.378Z,7.8
2018-09-03T21:47:01.382Z,7.7
2018-09-03T21:52:01.401Z,7.9
2018-09-03T21:57:01.336Z,7.6
2018-09-03T22:02:01.392Z,7.5
2018-09-03T22:07:02.423Z,7.4
2018-09-03T22:12:01.432Z,8.0
2018-09-03T22:17:01.419Z,8.8
2018-09-03T22:22:01.392Z,9.7
2018-09-03T22:27:01.393Z,10.5
2018-09-03T22:32:06.383Z,11.2
2018-09-03T22:37:06.383Z,12.1
2018-09-03T22:42:06.388Z,12.7
2018-09-03T22:47:01.446Z,13.3
2018-09-03T22:52:06.388Z,13.9
2018-09-03T22:57:01.443Z,14.2
2018-09-03T23:02:01.420Z,14.3
2018-09-03T23:07:01.363Z,14.2
2018-09-03T23:12:01.364Z,14.0
2018-09-03T23:17:01.389Z,13.5
2018-09-03T23:22:01.382Z,12.9
2018-09-03T23:27:01.381Z,12.0
2018-09-03T23:32:01.354Z,11.6
2018-09-03T23:37:01.355Z,11.6
2018-09-03T23:42:01.385Z,11.8
2018-09-03T23:47:01.400Z,12.1
2018-09-03T23:52:01.382Z,12.0
2018-09-03T23:57:01.392Z,11.7
